sensor_id;sensor_type;location;lat;lon;timestamp;temperature;humidity
10388;DHT22;5240;51.128;4.566;2023-04-16T00:01:17;8.80;99.90
10388;DHT22;5240;51.128;4.566;2023-04-16T00:03:44;8.70;99.90
10388;DHT22;5240;51.128;4.566;2023-04-16T00:06:11;8.70;99.90
10388;DHT22;5240;51.128;4.566;2023-04-16T00:08:39;8.80;99.90
10388;DHT22;5240;51.128;4.566;2023-04-16T00:11:08;8.90;99.90
10388;DHT22;5240;51.128;4.566;2023-04-16T00:13:35;8.90;99.90
10388;DHT22;5240;51.128;4.566;2023-04-16T00:16:02;8.90;99.90
10388;DHT22;5240;51.128;4.566;2023-04-16T00:18:29;9.00;99.90
10388;DHT22;5240;51.128;4.566;2023-04-16T00:20:56;9.00;99.90
10388;DHT22;5240;51.128;4.566;2023-04-16T00:23:24;9.00;99.90
10388;DHT22;5240;51.128;4.566;2023-04-16T00:25:52;8.90;99.90
10388;DHT22;5240;51.128;4.566;2023-04-16T00:28:21;9.00;99.90
10388;DHT22;5240;51.128;4.566;2023-04-16T00:30:48;9.00;99.90
10388;DHT22;5240;51.128;4.566;2023-04-16T00:33:16;9.00;99.90
10388;DHT22;5240;51.128;4.566;2023-04-16T00:35:44;9.00;99.90
10388;DHT22;5240;51.128;4.566;2023-04-16T00:38:11;9.00;99.90
10388;DHT22;5240;51.128;4.566;2023-04-16T00:40:38;9.10;99.90
10388;DHT22;5240;51.128;4.566;2023-04-16T00:43:07;9.10;99.90
10388;DHT22;5240;51.128;4.566;2023-04-16T00:45:34;9.10;99.90
10388;DHT22;5240;51.128;4.566;2023-04-16T00:48:01;9.10;99.90
10388;DHT22;5240;51.128;4.566;2023-04-16T00:50:29;9.10;99.90
10388;DHT22;5240;51.128;4.566;2023-04-16T00:52:56;9.00;99.90
10388;DHT22;5240;51.128;4.566;2023-04-16T00:55:23;9.00;99.90
10388;DHT22;5240;51.128;4.566;2023-04-16T00:57:51;9.00;99.90
10388;DHT22;5240;51.128;4.566;2023-04-16T01:00:19;8.90;99.90
10388;DHT22;5240;51.128;4.566;2023-04-16T01:02:47;9.00;99.90
10388;DHT22;5240;51.128;4.566;2023-04-16T01:05:14;9.00;99.90
10388;DHT22;5240;51.128;4.566;2023-04-16T01:07:41;9.00;99.90
10388;DHT22;5240;51.128;4.566;2023-04-16T01:10:08;9.00;99.90
10388;DHT22;5240;51.128;4.566;2023-04-16T01:12:35;9.00;99.90
10388;DHT22;5240;51.128;4.566;2023-04-16T01:15:02;9.00;99.90
10388;DHT22;5240;51.128;4.566;2023-04-16T01:17:31;9.00;99.90
10388;DHT22;5240;51.128;4.566;2023-04-16T01:19:58;9.00;99.90
10388;DHT22;5240;51.128;4.566;2023-04-16T01:22:27;8.90;99.90
10388;DHT22;5240;51.128;4.566;2023-04-16T01:24:54;9.00;99.90
10388;DHT22;5240;51.128;4.566;2023-04-16T01:27:21;8.90;99.90
10388;DHT22;5240;51.128;4.566;2023-04-16T01:29:48;9.00;99.90
10388;DHT22;5240;51.128;4.566;2023-04-16T01:32:15;9.00;99.90
10388;DHT22;5240;51.128;4.566;2023-04-16T01:34:42;9.00;99.90
10388;DHT22;5240;51.128;4.566;2023-04-16T01:37:10;9.00;99.90
10388;DHT22;5240;51.128;4.566;2023-04-16T01:39:38;9.00;99.90
10388;DHT22;5240;51.128;4.566;2023-04-16T01:42:05;9.00;99.90
10388;DHT22;5240;51.128;4.566;2023-04-16T01:44:32;9.00;99.90
10388;DHT22;5240;51.128;4.566;2023-04-16T01:46:59;9.00;99.90
10388;DHT22;5240;51.128;4.566;2023-04-16T01:49:26;9.00;99.90
10388;DHT22;5240;51.128;4.566;2023-04-16T01:51:53;9.00;99.90
10388;DHT22;5240;51.128;4.566;2023-04-16T01:54:20;9.00;99.90
10388;DHT22;5240;51.128;4.566;2023-04-16T01:56:48;9.00;99.90
10388;DHT22;5240;51.128;4.566;2023-04-16T01:59:15;9.00;99.90
10388;DHT22;5240;51.128;4.566;2023-04-16T02:01:43;9.00;99.90
10388;DHT22;5240;51.128;4.566;2023-04-16T02:04:11;8.90;99.90
10388;DHT22;5240;51.128;4.566;2023-04-16T02:06:38;9.00;99.90
10388;DHT22;5240;51.128;4.566;2023-04-16T02:09:05;9.00;99.90
10388;DHT22;5240;51.128;4.566;2023-04-16T02:11:32;9.10;99.90
10388;DHT22;5240;51.128;4.566;2023-04-16T02:14:00;9.10;99.90
10388;DHT22;5240;51.128;4.566;2023-04-16T02:16:27;9.10;99.90
10388;DHT22;5240;51.128;4.566;2023-04-16T02:18:54;9.00;99.90
10388;DHT22;5240;51.128;4.566;2023-04-16T02:21:21;9.00;99.90
10388;DHT22;5240;51.128;4.566;2023-04-16T02:23:48;9.10;99.90
10388;DHT22;5240;51.128;4.566;2023-04-16T02:26:16;9.00;99.90
10388;DHT22;5240;51.128;4.566;2023-04-16T02:28:43;9.00;99.90
10388;DHT22;5240;51.128;4.566;2023-04-16T02:31:11;9.00;99.90
10388;DHT22;5240;51.128;4.566;2023-04-16T02:33:39;9.00;99.90
10388;DHT22;5240;51.128;4.566;2023-04-16T02:36:06;9.00;99.90
10388;DHT22;5240;51.128;4.566;2023-04-16T02:38:35;8.80;99.90
10388;DHT22;5240;51.128;4.566;2023-04-16T02:41:03;8.70;99.90
10388;DHT22;5240;51.128;4.566;2023-04-16T02:43:30;8.70;99.90
10388;DHT22;5240;51.128;4.566;2023-04-16T02:45:57;8.70;99.90
10388;DHT22;5240;51.128;4.566;2023-04-16T02:48:26;8.70;99.90
10388;DHT22;5240;51.128;4.566;2023-04-16T02:50:53;8.70;99.90
10388;DHT22;5240;51.128;4.566;2023-04-16T02:53:20;8.60;99.90
10388;DHT22;5240;51.128;4.566;2023-04-16T02:55:49;8.60;99.90
10388;DHT22;5240;51.128;4.566;2023-04-16T02:58:18;8.50;99.90
10388;DHT22;5240;51.128;4.566;2023-04-16T03:00:45;8.50;99.90
10388;DHT22;5240;51.128;4.566;2023-04-16T03:03:12;8.30;99.90
10388;DHT22;5240;51.128;4.566;2023-04-16T03:05:41;8.40;99.90
10388;DHT22;5240;51.128;4.566;2023-04-16T03:08:08;8.40;99.90
10388;DHT22;5240;51.128;4.566;2023-04-16T03:10:35;8.40;99.90
10388;DHT22;5240;51.128;4.566;2023-04-16T03:13:02;8.50;99.90
10388;DHT22;5240;51.128;4.566;2023-04-16T03:15:30;8.40;99.90
10388;DHT22;5240;51.128;4.566;2023-04-16T03:17:57;8.40;99.90
10388;DHT22;5240;51.128;4.566;2023-04-16T03:20:24;8.30;99.90
10388;DHT22;5240;51.128;4.566;2023-04-16T03:22:53;8.30;99.90
10388;DHT22;5240;51.128;4.566;2023-04-16T03:25:20;8.30;99.90
10388;DHT22;5240;51.128;4.566;2023-04-16T03:27:47;8.30;99.90
10388;DHT22;5240;51.128;4.566;2023-04-16T03:30:14;8.30;99.90
10388;DHT22;5240;51.128;4.566;2023-04-16T03:32:41;8.30;99.90
10388;DHT22;5240;51.128;4.566;2023-04-16T03:35:09;8.20;99.90
10388;DHT22;5240;51.128;4.566;2023-04-16T03:37:36;8.30;99.90
10388;DHT22;5240;51.128;4.566;2023-04-16T03:40:05;8.30;99.90
10388;DHT22;5240;51.128;4.566;2023-04-16T03:42:32;8.30;99.90
10388;DHT22;5240;51.128;4.566;2023-04-16T03:44:59;8.30;99.90
10388;DHT22;5240;51.128;4.566;2023-04-16T03:47:26;8.30;99.90
10388;DHT22;5240;51.128;4.566;2023-04-16T03:49:53;8.30;99.90
10388;DHT22;5240;51.128;4.566;2023-04-16T03:52:20;8.30;99.90
10388;DHT22;5240;51.128;4.566;2023-04-16T03:54:47;8.30;99.90
10388;DHT22;5240;51.128;4.566;2023-04-16T03:57:16;8.40;99.90
10388;DHT22;5240;51.128;4.566;2023-04-16T03:59:43;8.40;99.90
10388;DHT22;5240;51.128;4.566;2023-04-16T04:02:10;8.40;99.90
10388;DHT22;5240;51.128;4.566;2023-04-16T04:04:37;8.40;99.90
10388;DHT22;5240;51.128;4.566;2023-04-16T04:07:04;8.40;99.90
10388;DHT22;5240;51.128;4.566;2023-04-16T04:09:31;8.30;99.90
10388;DHT22;5240;51.128;4.566;2023-04-16T04:11:58;8.40;99.90
10388;DHT22;5240;51.128;4.566;2023-04-16T04:14:27;8.40;99.90
10388;DHT22;5240;51.128;4.566;2023-04-16T04:16:54;8.40;99.90
10388;DHT22;5240;51.128;4.566;2023-04-16T04:19:21;8.40;99.90
10388;DHT22;5240;51.128;4.566;2023-04-16T04:21:48;8.40;99.90
10388;DHT22;5240;51.128;4.566;2023-04-16T04:24:15;8.40;99.90
10388;DHT22;5240;51.128;4.566;2023-04-16T04:26:42;8.40;99.90
10388;DHT22;5240;51.128;4.566;2023-04-16T04:29:09;8.40;99.90
10388;DHT22;5240;51.128;4.566;2023-04-16T04:31:37;8.40;99.90
10388;DHT22;5240;51.128;4.566;2023-04-16T04:34:04;8.30;99.90
10388;DHT22;5240;51.128;4.566;2023-04-16T04:36:31;8.30;99.90
10388;DHT22;5240;51.128;4.566;2023-04-16T04:38:58;8.40;99.90
10388;DHT22;5240;51.128;4.566;2023-04-16T04:41:25;8.40;99.90
10388;DHT22;5240;51.128;4.566;2023-04-16T04:43:52;8.40;99.90
10388;DHT22;5240;51.128;4.566;2023-04-16T04:46:19;8.40;99.90
10388;DHT22;5240;51.128;4.566;2023-04-16T04:48:47;8.40;99.90
10388;DHT22;5240;51.128;4.566;2023-04-16T04:51:15;8.40;99.90
10388;DHT22;5240;51.128;4.566;2023-04-16T04:53:42;8.40;99.90
10388;DHT22;5240;51.128;4.566;2023-04-16T04:56:09;8.30;99.90
10388;DHT22;5240;51.128;4.566;2023-04-16T04:58:35;8.40;99.90
10388;DHT22;5240;51.128;4.566;2023-04-16T05:01:03;8.30;99.90
10388;DHT22;5240;51.128;4.566;2023-04-16T05:03:30;8.40;99.90
10388;DHT22;5240;51.128;4.566;2023-04-16T05:05:58;8.40;99.90
10388;DHT22;5240;51.128;4.566;2023-04-16T05:08:25;8.40;99.90
10388;DHT22;5240;51.128;4.566;2023-04-16T05:10:52;8.40;99.90
10388;DHT22;5240;51.128;4.566;2023-04-16T05:13:19;8.40;99.90
10388;DHT22;5240;51.128;4.566;2023-04-16T05:15:46;8.40;99.90
10388;DHT22;5240;51.128;4.566;2023-04-16T05:18:13;8.40;99.90
10388;DHT22;5240;51.128;4.566;2023-04-16T05:20:40;8.50;99.90
10388;DHT22;5240;51.128;4.566;2023-04-16T05:23:09;8.30;99.90
10388;DHT22;5240;51.128;4.566;2023-04-16T05:25:36;8.20;99.90
10388;DHT22;5240;51.128;4.566;2023-04-16T05:28:03;8.30;99.90
10388;DHT22;5240;51.128;4.566;2023-04-16T05:30:30;8.30;99.90
10388;DHT22;5240;51.128;4.566;2023-04-16T05:32:57;8.30;99.90
10388;DHT22;5240;51.128;4.566;2023-04-16T05:35:24;8.30;99.90
10388;DHT22;5240;51.128;4.566;2023-04-16T05:37:51;8.30;99.90
10388;DHT22;5240;51.128;4.566;2023-04-16T05:40:19;8.30;99.90
10388;DHT22;5240;51.128;4.566;2023-04-16T05:42:46;8.30;99.90
10388;DHT22;5240;51.128;4.566;2023-04-16T05:45:13;8.30;99.90
10388;DHT22;5240;51.128;4.566;2023-04-16T05:47:40;8.30;99.90
10388;DHT22;5240;51.128;4.566;2023-04-16T05:50:08;8.40;99.90
10388;DHT22;5240;51.128;4.566;2023-04-16T05:52:35;8.40;99.90
10388;DHT22;5240;51.128;4.566;2023-04-16T05:55:02;8.40;99.90
10388;DHT22;5240;51.128;4.566;2023-04-16T05:57:32;8.40;99.90
10388;DHT22;5240;51.128;4.566;2023-04-16T05:59:59;8.30;99.90
10388;DHT22;5240;51.128;4.566;2023-04-16T06:02:26;8.40;99.90
10388;DHT22;5240;51.128;4.566;2023-04-16T06:04:55;8.40;99.90
10388;DHT22;5240;51.128;4.566;2023-04-16T06:07:21;8.40;99.90
10388;DHT22;5240;51.128;4.566;2023-04-16T06:09:48;8.40;99.90
10388;DHT22;5240;51.128;4.566;2023-04-16T06:12:15;8.50;99.90
10388;DHT22;5240;51.128;4.566;2023-04-16T06:14:44;8.50;99.90
10388;DHT22;5240;51.128;4.566;2023-04-16T06:17:11;8.40;99.90
10388;DHT22;5240;51.128;4.566;2023-04-16T06:19:38;8.40;99.90
10388;DHT22;5240;51.128;4.566;2023-04-16T06:22:06;8.40;99.90
10388;DHT22;5240;51.128;4.566;2023-04-16T06:24:33;8.40;99.90
10388;DHT22;5240;51.128;4.566;2023-04-16T06:27:00;8.50;99.90
10388;DHT22;5240;51.128;4.566;2023-04-16T06:29:27;8.50;99.90
10388;DHT22;5240;51.128;4.566;2023-04-16T06:31:56;8.50;99.90
10388;DHT22;5240;51.128;4.566;2023-04-16T06:34:22;8.50;99.90
10388;DHT22;5240;51.128;4.566;2023-04-16T06:36:50;8.50;99.90
10388;DHT22;5240;51.128;4.566;2023-04-16T06:39:17;8.50;99.90
10388;DHT22;5240;51.128;4.566;2023-04-16T06:41:46;8.50;99.90
10388;DHT22;5240;51.128;4.566;2023-04-16T06:44:13;8.60;99.90
10388;DHT22;5240;51.128;4.566;2023-04-16T06:46:40;8.60;99.90
10388;DHT22;5240;51.128;4.566;2023-04-16T06:49:08;8.70;99.90
10388;DHT22;5240;51.128;4.566;2023-04-16T06:51:35;8.60;99.90
10388;DHT22;5240;51.128;4.566;2023-04-16T06:54:02;8.70;99.90
10388;DHT22;5240;51.128;4.566;2023-04-16T06:56:30;8.60;99.90
10388;DHT22;5240;51.128;4.566;2023-04-16T06:58:57;8.60;99.90
10388;DHT22;5240;51.128;4.566;2023-04-16T07:01:25;8.60;99.90
10388;DHT22;5240;51.128;4.566;2023-04-16T07:03:53;8.60;99.90
10388;DHT22;5240;51.128;4.566;2023-04-16T07:06:21;8.60;99.90
10388;DHT22;5240;51.128;4.566;2023-04-16T07:08:48;8.60;99.90
10388;DHT22;5240;51.128;4.566;2023-04-16T07:11:16;8.60;99.90
10388;DHT22;5240;51.128;4.566;2023-04-16T07:13:44;8.60;99.90
10388;DHT22;5240;51.128;4.566;2023-04-16T07:16:11;8.60;99.90
10388;DHT22;5240;51.128;4.566;2023-04-16T07:18:38;8.70;99.90
10388;DHT22;5240;51.128;4.566;2023-04-16T07:21:05;8.60;99.90
10388;DHT22;5240;51.128;4.566;2023-04-16T07:23:34;8.60;99.90
10388;DHT22;5240;51.128;4.566;2023-04-16T07:26:01;8.70;99.90
10388;DHT22;5240;51.128;4.566;2023-04-16T07:28:28;8.60;99.90
10388;DHT22;5240;51.128;4.566;2023-04-16T07:30:55;8.70;99.90
10388;DHT22;5240;51.128;4.566;2023-04-16T07:33:22;8.70;99.90
10388;DHT22;5240;51.128;4.566;2023-04-16T07:35:49;8.70;99.90
10388;DHT22;5240;51.128;4.566;2023-04-16T07:38:16;8.70;99.90
10388;DHT22;5240;51.128;4.566;2023-04-16T07:40:45;8.70;99.90
10388;DHT22;5240;51.128;4.566;2023-04-16T07:43:13;8.70;99.90
10388;DHT22;5240;51.128;4.566;2023-04-16T07:45:40;8.60;99.90
10388;DHT22;5240;51.128;4.566;2023-04-16T07:48:07;8.60;99.90
10388;DHT22;5240;51.128;4.566;2023-04-16T07:50:35;8.60;99.90
10388;DHT22;5240;51.128;4.566;2023-04-16T07:53:02;8.60;99.90
10388;DHT22;5240;51.128;4.566;2023-04-16T07:55:30;8.60;99.90
10388;DHT22;5240;51.128;4.566;2023-04-16T07:57:59;8.70;99.90
10388;DHT22;5240;51.128;4.566;2023-04-16T08:00:27;8.70;99.90
10388;DHT22;5240;51.128;4.566;2023-04-16T08:02:54;8.70;99.90
10388;DHT22;5240;51.128;4.566;2023-04-16T08:05:21;8.70;99.90
10388;DHT22;5240;51.128;4.566;2023-04-16T08:07:48;8.70;99.90
10388;DHT22;5240;51.128;4.566;2023-04-16T08:10:15;8.70;99.90
10388;DHT22;5240;51.128;4.566;2023-04-16T08:12:42;8.70;99.90
10388;DHT22;5240;51.128;4.566;2023-04-16T08:15:11;8.80;99.90
10388;DHT22;5240;51.128;4.566;2023-04-16T08:17:38;8.80;99.90
10388;DHT22;5240;51.128;4.566;2023-04-16T08:20:06;8.80;99.90
10388;DHT22;5240;51.128;4.566;2023-04-16T08:22:33;9.00;99.90
10388;DHT22;5240;51.128;4.566;2023-04-16T08:25:00;8.80;99.90
10388;DHT22;5240;51.128;4.566;2023-04-16T08:27:27;8.80;99.90
10388;DHT22;5240;51.128;4.566;2023-04-16T08:29:54;8.80;99.90
10388;DHT22;5240;51.128;4.566;2023-04-16T08:32:22;8.80;99.90
10388;DHT22;5240;51.128;4.566;2023-04-16T08:34:50;8.80;99.90
10388;DHT22;5240;51.128;4.566;2023-04-16T08:37:17;8.90;99.90
10388;DHT22;5240;51.128;4.566;2023-04-16T08:39:44;9.00;99.90
10388;DHT22;5240;51.128;4.566;2023-04-16T08:42:17;9.00;99.90
10388;DHT22;5240;51.128;4.566;2023-04-16T08:44:48;9.00;99.90
10388;DHT22;5240;51.128;4.566;2023-04-16T08:47:18;8.90;99.90
10388;DHT22;5240;51.128;4.566;2023-04-16T08:49:51;8.90;99.90
10388;DHT22;5240;51.128;4.566;2023-04-16T08:52:22;9.00;99.90
10388;DHT22;5240;51.128;4.566;2023-04-16T08:54:56;9.10;99.90
10388;DHT22;5240;51.128;4.566;2023-04-16T08:57:29;9.10;99.90
10388;DHT22;5240;51.128;4.566;2023-04-16T08:59:57;9.00;99.90
10388;DHT22;5240;51.128;4.566;2023-04-16T09:02:25;9.00;99.90
10388;DHT22;5240;51.128;4.566;2023-04-16T09:04:55;9.00;99.90
10388;DHT22;5240;51.128;4.566;2023-04-16T09:07:23;9.10;99.90
10388;DHT22;5240;51.128;4.566;2023-04-16T09:09:52;9.10;99.90
10388;DHT22;5240;51.128;4.566;2023-04-16T09:12:22;9.10;99.90
10388;DHT22;5240;51.128;4.566;2023-04-16T09:14:49;9.00;99.90
10388;DHT22;5240;51.128;4.566;2023-04-16T09:17:17;9.00;99.90
10388;DHT22;5240;51.128;4.566;2023-04-16T09:19:44;9.00;99.90
10388;DHT22;5240;51.128;4.566;2023-04-16T09:22:13;9.10;99.90
10388;DHT22;5240;51.128;4.566;2023-04-16T09:24:41;9.10;99.90
10388;DHT22;5240;51.128;4.566;2023-04-16T09:27:08;9.10;99.90
10388;DHT22;5240;51.128;4.566;2023-04-16T09:29:36;9.20;99.90
10388;DHT22;5240;51.128;4.566;2023-04-16T09:32:04;9.20;99.90
10388;DHT22;5240;51.128;4.566;2023-04-16T09:34:32;9.10;99.90
10388;DHT22;5240;51.128;4.566;2023-04-16T09:37:17;9.20;99.90
10388;DHT22;5240;51.128;4.566;2023-04-16T09:39:51;9.30;99.90
10388;DHT22;5240;51.128;4.566;2023-04-16T09:42:21;9.30;99.90
10388;DHT22;5240;51.128;4.566;2023-04-16T09:44:48;9.30;99.90
10388;DHT22;5240;51.128;4.566;2023-04-16T09:47:15;9.30;99.90
10388;DHT22;5240;51.128;4.566;2023-04-16T09:49:43;9.40;99.90
10388;DHT22;5240;51.128;4.566;2023-04-16T09:52:17;9.40;99.90
10388;DHT22;5240;51.128;4.566;2023-04-16T09:54:48;9.30;99.90
10388;DHT22;5240;51.128;4.566;2023-04-16T09:57:18;9.40;99.90
10388;DHT22;5240;51.128;4.566;2023-04-16T09:59:46;9.50;99.90
10388;DHT22;5240;51.128;4.566;2023-04-16T10:02:13;9.50;99.90
10388;DHT22;5240;51.128;4.566;2023-04-16T10:04:48;9.40;99.90
10388;DHT22;5240;51.128;4.566;2023-04-16T10:07:17;9.50;99.90
10388;DHT22;5240;51.128;4.566;2023-04-16T10:09:45;9.50;99.90
10388;DHT22;5240;51.128;4.566;2023-04-16T10:12:13;9.50;99.90
10388;DHT22;5240;51.128;4.566;2023-04-16T10:14:41;9.50;99.90
10388;DHT22;5240;51.128;4.566;2023-04-16T10:17:08;9.60;99.90
10388;DHT22;5240;51.128;4.566;2023-04-16T10:19:36;9.60;99.90
10388;DHT22;5240;51.128;4.566;2023-04-16T10:22:03;9.70;99.90
10388;DHT22;5240;51.128;4.566;2023-04-16T10:24:32;9.70;99.90
10388;DHT22;5240;51.128;4.566;2023-04-16T10:27:00;9.70;99.90
10388;DHT22;5240;51.128;4.566;2023-04-16T10:29:29;9.70;99.90
10388;DHT22;5240;51.128;4.566;2023-04-16T10:31:57;9.80;99.90
10388;DHT22;5240;51.128;4.566;2023-04-16T10:34:25;9.80;99.90
10388;DHT22;5240;51.128;4.566;2023-04-16T10:36:54;9.70;99.90
10388;DHT22;5240;51.128;4.566;2023-04-16T10:39:23;9.70;99.90
10388;DHT22;5240;51.128;4.566;2023-04-16T10:42:06;9.70;99.90
10388;DHT22;5240;51.128;4.566;2023-04-16T10:44:33;9.80;99.90
10388;DHT22;5240;51.128;4.566;2023-04-16T10:47:00;9.80;99.90
10388;DHT22;5240;51.128;4.566;2023-04-16T10:49:28;9.70;99.90
10388;DHT22;5240;51.128;4.566;2023-04-16T10:51:59;9.80;99.90
10388;DHT22;5240;51.128;4.566;2023-04-16T10:54:29;9.70;99.90
10388;DHT22;5240;51.128;4.566;2023-04-16T10:56:59;9.80;99.90
10388;DHT22;5240;51.128;4.566;2023-04-16T10:59:30;9.60;99.90
10388;DHT22;5240;51.128;4.566;2023-04-16T11:01:59;9.70;99.90
10388;DHT22;5240;51.128;4.566;2023-04-16T11:04:28;9.60;99.90
10388;DHT22;5240;51.128;4.566;2023-04-16T11:07:01;9.70;99.90
10388;DHT22;5240;51.128;4.566;2023-04-16T11:10:02;9.60;99.90
10388;DHT22;5240;51.128;4.566;2023-04-16T11:12:34;9.70;99.90
10388;DHT22;5240;51.128;4.566;2023-04-16T11:15:03;9.50;99.90
10388;DHT22;5240;51.128;4.566;2023-04-16T11:17:32;9.60;99.90
10388;DHT22;5240;51.128;4.566;2023-04-16T11:20:01;9.70;99.90
10388;DHT22;5240;51.128;4.566;2023-04-16T11:22:29;9.80;99.90
10388;DHT22;5240;51.128;4.566;2023-04-16T11:24:57;9.80;99.90
10388;DHT22;5240;51.128;4.566;2023-04-16T11:27:24;9.70;99.90
10388;DHT22;5240;51.128;4.566;2023-04-16T11:30:00;9.80;99.90
10388;DHT22;5240;51.128;4.566;2023-04-16T11:32:30;9.80;99.90
10388;DHT22;5240;51.128;4.566;2023-04-16T11:34:58;9.80;99.90
10388;DHT22;5240;51.128;4.566;2023-04-16T11:37:32;9.90;99.90
10388;DHT22;5240;51.128;4.566;2023-04-16T11:39:59;9.80;99.90
10388;DHT22;5240;51.128;4.566;2023-04-16T11:42:28;9.80;99.90
10388;DHT22;5240;51.128;4.566;2023-04-16T11:44:56;9.80;99.90
10388;DHT22;5240;51.128;4.566;2023-04-16T11:47:27;9.80;99.90
10388;DHT22;5240;51.128;4.566;2023-04-16T11:49:55;9.80;99.90
10388;DHT22;5240;51.128;4.566;2023-04-16T11:52:26;9.80;99.90
10388;DHT22;5240;51.128;4.566;2023-04-16T11:54:53;9.90;99.90
10388;DHT22;5240;51.128;4.566;2023-04-16T11:57:25;9.90;99.90
10388;DHT22;5240;51.128;4.566;2023-04-16T11:59:52;9.80;99.90
10388;DHT22;5240;51.128;4.566;2023-04-16T12:02:36;9.80;99.90
10388;DHT22;5240;51.128;4.566;2023-04-16T12:05:05;9.70;99.90
10388;DHT22;5240;51.128;4.566;2023-04-16T12:07:43;9.80;99.90
10388;DHT22;5240;51.128;4.566;2023-04-16T12:10:11;10.00;99.90
10388;DHT22;5240;51.128;4.566;2023-04-16T12:12:39;10.00;99.90
10388;DHT22;5240;51.128;4.566;2023-04-16T12:15:07;10.10;99.90
10388;DHT22;5240;51.128;4.566;2023-04-16T12:17:36;10.10;99.90
10388;DHT22;5240;51.128;4.566;2023-04-16T12:20:07;9.90;99.90
10388;DHT22;5240;51.128;4.566;2023-04-16T12:22:36;10.00;99.90
10388;DHT22;5240;51.128;4.566;2023-04-16T12:25:05;10.10;99.90
10388;DHT22;5240;51.128;4.566;2023-04-16T12:27:43;10.10;99.90
10388;DHT22;5240;51.128;4.566;2023-04-16T12:30:12;10.10;99.90
10388;DHT22;5240;51.128;4.566;2023-04-16T12:32:41;10.10;99.90
10388;DHT22;5240;51.128;4.566;2023-04-16T12:35:09;10.30;99.90
10388;DHT22;5240;51.128;4.566;2023-04-16T12:37:36;10.30;99.90
10388;DHT22;5240;51.128;4.566;2023-04-16T12:40:05;10.40;99.90
10388;DHT22;5240;51.128;4.566;2023-04-16T12:42:33;10.40;99.90
10388;DHT22;5240;51.128;4.566;2023-04-16T12:45:02;10.30;99.90
10388;DHT22;5240;51.128;4.566;2023-04-16T12:47:29;10.30;99.90
10388;DHT22;5240;51.128;4.566;2023-04-16T12:49:58;10.30;99.90
10388;DHT22;5240;51.128;4.566;2023-04-16T12:52:26;10.30;99.90
10388;DHT22;5240;51.128;4.566;2023-04-16T12:54:53;10.40;99.90
10388;DHT22;5240;51.128;4.566;2023-04-16T12:57:20;10.40;99.90
10388;DHT22;5240;51.128;4.566;2023-04-16T12:59:53;10.30;99.90
10388;DHT22;5240;51.128;4.566;2023-04-16T13:02:20;10.40;99.90
10388;DHT22;5240;51.128;4.566;2023-04-16T13:04:47;10.30;99.90
10388;DHT22;5240;51.128;4.566;2023-04-16T13:07:16;10.40;99.90
10388;DHT22;5240;51.128;4.566;2023-04-16T13:09:44;10.50;99.90
10388;DHT22;5240;51.128;4.566;2023-04-16T13:12:11;10.50;99.90
10388;DHT22;5240;51.128;4.566;2023-04-16T13:14:38;10.60;99.90
10388;DHT22;5240;51.128;4.566;2023-04-16T13:17:05;10.70;99.90
10388;DHT22;5240;51.128;4.566;2023-04-16T13:19:32;10.80;99.90
10388;DHT22;5240;51.128;4.566;2023-04-16T13:21:59;10.60;99.90
10388;DHT22;5240;51.128;4.566;2023-04-16T13:24:29;10.60;99.90
10388;DHT22;5240;51.128;4.566;2023-04-16T13:26:57;10.70;99.90
10388;DHT22;5240;51.128;4.566;2023-04-16T13:29:25;10.70;99.90
10388;DHT22;5240;51.128;4.566;2023-04-16T13:31:52;10.70;99.90
10388;DHT22;5240;51.128;4.566;2023-04-16T13:34:19;10.80;99.90
10388;DHT22;5240;51.128;4.566;2023-04-16T13:36:46;10.70;99.90
10388;DHT22;5240;51.128;4.566;2023-04-16T13:39:13;10.60;99.90
10388;DHT22;5240;51.128;4.566;2023-04-16T13:41:42;10.70;99.90
10388;DHT22;5240;51.128;4.566;2023-04-16T13:44:09;10.70;99.90
10388;DHT22;5240;51.128;4.566;2023-04-16T13:46:36;10.90;99.90
10388;DHT22;5240;51.128;4.566;2023-04-16T13:49:03;10.90;99.90
10388;DHT22;5240;51.128;4.566;2023-04-16T13:51:30;11.00;99.90
10388;DHT22;5240;51.128;4.566;2023-04-16T13:53:57;11.10;99.90
10388;DHT22;5240;51.128;4.566;2023-04-16T13:56:24;11.10;99.90
10388;DHT22;5240;51.128;4.566;2023-04-16T13:58:53;11.10;99.90
10388;DHT22;5240;51.128;4.566;2023-04-16T14:01:20;10.90;99.90
10388;DHT22;5240;51.128;4.566;2023-04-16T14:03:48;10.80;99.90
10388;DHT22;5240;51.128;4.566;2023-04-16T14:06:15;10.90;99.90
10388;DHT22;5240;51.128;4.566;2023-04-16T14:08:42;10.90;99.90
10388;DHT22;5240;51.128;4.566;2023-04-16T14:11:12;11.00;99.90
10388;DHT22;5240;51.128;4.566;2023-04-16T14:13:39;11.00;99.90
10388;DHT22;5240;51.128;4.566;2023-04-16T14:16:07;11.00;99.90
10388;DHT22;5240;51.128;4.566;2023-04-16T14:18:35;11.00;99.90
10388;DHT22;5240;51.128;4.566;2023-04-16T14:21:06;11.00;99.90
10388;DHT22;5240;51.128;4.566;2023-04-16T14:23:33;11.00;99.90
10388;DHT22;5240;51.128;4.566;2023-04-16T14:26:00;11.00;99.90
10388;DHT22;5240;51.128;4.566;2023-04-16T14:28:27;11.00;99.90
10388;DHT22;5240;51.128;4.566;2023-04-16T14:30:55;11.10;99.90
10388;DHT22;5240;51.128;4.566;2023-04-16T14:33:23;11.00;99.90
10388;DHT22;5240;51.128;4.566;2023-04-16T14:35:50;11.00;99.90
10388;DHT22;5240;51.128;4.566;2023-04-16T14:38:17;11.00;99.90
10388;DHT22;5240;51.128;4.566;2023-04-16T14:40:46;11.10;99.90
10388;DHT22;5240;51.128;4.566;2023-04-16T14:43:14;11.20;99.90
10388;DHT22;5240;51.128;4.566;2023-04-16T14:45:41;11.30;99.90
10388;DHT22;5240;51.128;4.566;2023-04-16T14:48:08;11.30;99.90
10388;DHT22;5240;51.128;4.566;2023-04-16T14:50:37;11.30;99.90
10388;DHT22;5240;51.128;4.566;2023-04-16T14:53:08;11.20;99.90
10388;DHT22;5240;51.128;4.566;2023-04-16T14:55:37;11.30;99.90
10388;DHT22;5240;51.128;4.566;2023-04-16T14:58:06;11.40;99.90
10388;DHT22;5240;51.128;4.566;2023-04-16T15:00:36;11.40;99.90
10388;DHT22;5240;51.128;4.566;2023-04-16T15:03:04;11.30;99.90
10388;DHT22;5240;51.128;4.566;2023-04-16T15:05:31;11.30;99.90
10388;DHT22;5240;51.128;4.566;2023-04-16T15:07:59;11.20;99.90
10388;DHT22;5240;51.128;4.566;2023-04-16T15:10:27;11.10;99.90
10388;DHT22;5240;51.128;4.566;2023-04-16T15:12:54;11.20;99.90
10388;DHT22;5240;51.128;4.566;2023-04-16T15:15:27;11.20;99.90
10388;DHT22;5240;51.128;4.566;2023-04-16T15:17:54;11.20;99.90
10388;DHT22;5240;51.128;4.566;2023-04-16T15:20:22;11.10;99.90
10388;DHT22;5240;51.128;4.566;2023-04-16T15:22:49;11.20;99.90
10388;DHT22;5240;51.128;4.566;2023-04-16T15:25:18;11.20;99.90
10388;DHT22;5240;51.128;4.566;2023-04-16T15:27:57;11.20;99.90
10388;DHT22;5240;51.128;4.566;2023-04-16T15:30:27;11.10;99.90
10388;DHT22;5240;51.128;4.566;2023-04-16T15:32:54;11.20;99.90
10388;DHT22;5240;51.128;4.566;2023-04-16T15:35:21;11.20;99.90
10388;DHT22;5240;51.128;4.566;2023-04-16T15:37:48;11.20;99.90
10388;DHT22;5240;51.128;4.566;2023-04-16T15:40:18;11.10;99.90
10388;DHT22;5240;51.128;4.566;2023-04-16T15:42:45;11.20;99.90
10388;DHT22;5240;51.128;4.566;2023-04-16T15:45:13;11.20;99.90
10388;DHT22;5240;51.128;4.566;2023-04-16T15:47:40;11.30;99.90
10388;DHT22;5240;51.128;4.566;2023-04-16T15:50:07;11.40;99.90
10388;DHT22;5240;51.128;4.566;2023-04-16T15:52:34;11.40;99.90
10388;DHT22;5240;51.128;4.566;2023-04-16T15:55:04;11.50;99.90
10388;DHT22;5240;51.128;4.566;2023-04-16T15:57:32;11.60;99.90
10388;DHT22;5240;51.128;4.566;2023-04-16T16:00:03;11.70;99.90
10388;DHT22;5240;51.128;4.566;2023-04-16T16:02:37;11.80;99.90